Time;durP1;ratioP1;P1;durP2;ratioP2;P2;SDS_P1;SDS_P2;PMS_P1;PMS_P2;Temp;Humidity;BMP_temperature;BMP_pressure;BME280_temperature;BME280_humidity;BME280_pressure;Samples;Min_cycle;Max_cycle;Signal;HPM_P1;HPM_P2
2023/02/26 00:00:14;;;;;;;198.55;182.77;;;;;;;-3.11;84.90;101799.13;4913104;28;20082;-72
2023/02/26 00:02:41;;;;;;;202.75;187.60;;;;;;;-3.25;85.24;101802.28;4917280;29;20115;-71
2023/02/26 00:05:08;;;;;;;198.40;183.70;;;;;;;-2.96;84.72;101799.38;4921995;28;20408;-74
2023/02/26 00:07:34;;;;;;;195.80;180.27;;;;;;;-2.79;84.49;101799.28;4939999;28;20507;-71
2023/02/26 00:10:02;;;;;;;194.20;178.93;;;;;;;-2.89;84.60;101814.31;4923844;29;20024;-73
2023/02/26 00:12:29;;;;;;;194.40;179.10;;;;;;;-2.80;84.40;101809.94;4924805;29;20047;-72
2023/02/26 00:14:55;;;;;;;201.85;186.88;;;;;;;-2.91;84.24;101810.19;4940728;28;20032;-74
2023/02/26 00:17:47;;;;;;;197.38;181.77;;;;;;;-3.02;84.74;101832.25;4928187;29;20601;-72
2023/02/26 00:20:15;;;;;;;192.75;177.63;;;;;;;-3.11;85.10;101825.31;4929419;29;20035;-73
2023/02/26 00:22:42;;;;;;;197.68;181.93;;;;;;;-3.10;85.15;101826.97;4928254;29;20039;-73
2023/02/26 00:25:08;;;;;;;206.02;190.68;;;;;;;-3.22;85.03;101829.00;4929878;29;20042;-73
2023/02/26 00:27:34;;;;;;;198.05;182.80;;;;;;;-3.16;84.96;101835.44;4928994;29;20493;-71
2023/02/26 00:30:03;;;;;;;202.57;187.45;;;;;;;-3.38;85.55;101834.13;4924674;29;20039;-73
2023/02/26 00:32:28;;;;;;;206.65;191.52;;;;;;;-3.47;85.44;101843.69;4911106;29;20056;-71
2023/02/26 00:34:55;;;;;;;199.88;184.95;;;;;;;-3.35;85.58;101849.53;4931387;29;20071;-73
2023/02/26 00:37:45;;;;;;;202.60;187.65;;;;;;;-3.33;85.74;101840.53;4926092;29;20039;-71
2023/02/26 00:40:17;;;;;;;204.18;188.95;;;;;;;-3.33;85.54;101850.19;4911554;29;20485;-72
2023/02/26 00:42:43;;;;;;;193.77;178.30;;;;;;;-3.39;85.59;101854.22;4928333;29;20089;-72
2023/02/26 00:45:13;;;;;;;193.93;178.63;;;;;;;-3.40;85.58;101862.25;4925526;29;20529;-72
2023/02/26 00:47:47;;;;;;;207.00;191.57;;;;;;;-3.29;85.27;101864.66;4927816;29;20059;-72
2023/02/26 00:50:18;;;;;;;198.57;184.20;;;;;;;-3.23;85.10;101874.53;4909408;29;20155;-72
2023/02/26 00:53:02;;;;;;;204.88;189.55;;;;;;;-3.29;84.96;101869.88;4911003;29;20540;-72
2023/02/26 00:55:28;;;;;;;199.82;184.07;;;;;;;-3.42;85.16;101874.69;4927168;29;20035;-71
2023/02/26 00:57:57;;;;;;;200.50;185.52;;;;;;;-3.31;84.86;101887.56;4927733;29;20035;-72
2023/02/26 01:00:22;;;;;;;195.85;180.43;;;;;;;-3.19;84.48;101888.13;4927551;29;20044;-72
2023/02/26 01:02:49;;;;;;;199.45;184.80;;;;;;;-3.30;84.60;101883.97;4930692;29;20036;-72
2023/02/26 01:05:16;;;;;;;203.57;188.57;;;;;;;-3.44;85.23;101887.13;4930425;29;20470;-71
2023/02/26 01:07:57;;;;;;;196.68;181.18;;;;;;;-3.48;85.16;101889.19;4942347;28;20394;-72
2023/02/26 01:10:23;;;;;;;207.00;191.65;;;;;;;-3.62;85.27;101894.94;4932252;29;20047;-72
2023/02/26 01:12:49;;;;;;;196.85;181.32;;;;;;;-3.61;85.60;101894.78;4926270;29;20841;-73
2023/02/26 01:15:15;;;;;;;203.07;187.88;;;;;;;-3.21;84.43;101898.78;4925131;29;20048;-74
2023/02/26 01:17:51;;;;;;;197.02;181.52;;;;;;;-3.08;85.11;101904.44;4926517;29;20039;-70
2023/02/26 01:20:21;;;;;;;197.80;182.05;;;;;;;-2.90;84.02;101901.81;4942385;28;20036;-74
2023/02/26 01:22:58;;;;;;;204.73;189.32;;;;;;;-2.61;83.01;101912.00;4910175;29;20040;-72
2023/02/26 01:25:42;;;;;;;197.07;181.68;;;;;;;-2.32;81.89;101918.72;4926632;29;20039;-73
2023/02/26 01:28:09;;;;;;;207.45;192.05;;;;;;;-2.70;82.58;101917.34;4907934;29;20054;-72
2023/02/26 01:30:35;;;;;;;192.38;177.20;;;;;;;-2.84;83.30;101910.88;4929328;29;20713;-73
2023/02/26 01:33:23;;;;;;;193.90;178.60;;;;;;;-2.91;83.01;101913.28;4926704;29;20039;-73
2023/02/26 01:36:00;;;;;;;197.57;181.60;;;;;;;-2.99;83.11;101907.13;4929152;29;20185;-73
2023/02/26 01:38:27;;;;;;;193.90;178.80;;;;;;;-3.09;83.60;101907.22;4924710;29;20165;-73
2023/02/26 01:40:58;;;;;;;204.43;189.60;;;;;;;-3.26;83.82;101915.91;4926186;29;20044;-73
2023/02/26 01:43:41;;;;;;;196.60;180.85;;;;;;;-3.12;84.23;101910.94;4921536;29;20043;-73
2023/02/26 01:46:24;;;;;;;195.15;179.52;;;;;;;-3.32;84.10;101912.94;4925610;29;20115;-72
2023/02/26 01:48:54;;;;;;;;;;;;;;;-3.15;82.93;101924.38;4942946;28;20040;-73
2023/02/26 01:51:52;;;;;;;199.68;183.35;;;;;;;-2.97;83.22;101928.78;4943003;28;19926;-74
2023/02/26 01:54:21;;;;;;;206.55;191.30;;;;;;;-2.88;82.23;101920.81;4941888;28;20491;-72
2023/02/26 01:56:54;;;;;;;205.80;190.63;;;;;;;-2.78;80.76;101924.19;4944431;28;20036;-73
2023/02/26 01:59:23;;;;;;;197.70;181.88;;;;;;;-2.71;80.15;101921.75;4925768;29;20043;-72
2023/02/26 02:01:52;;;;;;;193.88;178.30;;;;;;;-2.82;80.38;101922.84;4911252;29;20050;-73
2023/02/26 02:04:21;;;;;;;207.38;192.05;;;;;;;-2.87;80.01;101932.13;4925611;29;20083;-73
2023/02/26 02:06:47;;;;;;;200.35;185.50;;;;;;;-2.96;80.46;101926.00;4927306;29;20478;-73
2023/02/26 02:09:12;;;;;;;204.77;189.55;;;;;;;-3.03;80.26;101938.91;4930413;29;20116;-70
2023/02/26 02:11:55;;;;;;;196.13;180.57;;;;;;;-3.15;81.27;101940.09;4928529;29;20047;-74
2023/02/26 02:14:45;;;;;;;192.60;177.50;;;;;;;-3.15;81.21;101940.09;4927778;29;20035;-73
2023/02/26 02:17:43;;;;;;;195.25;179.68;;;;;;;-3.03;81.08;101951.19;4925514;29;20051;-74
2023/02/26 02:20:27;;;;;;;194.98;179.68;;;;;;;-2.95;80.83;101953.03;4925205;29;20119;-74
2023/02/26 02:23:03;;;;;;;194.27;179.00;;;;;;;-2.85;80.94;101964.25;4925660;29;20050;-73
2023/02/26 02:25:49;;;;;;;192.68;177.57;;;;;;;-2.75;80.30;101967.63;4925627;29;20035;-74
2023/02/26 02:28:39;;;;;;;204.43;189.27;;;;;;;-2.70;79.89;101967.19;4911364;29;20126;-71
2023/02/26 02:31:47;;;;;;;192.73;177.45;;;;;;;-2.93;80.65;101975.50;4930945;29;20046;-74
2023/02/26 02:34:26;;;;;;;192.90;177.65;;;;;;;-2.59;79.08;101972.16;4927839;29;20063;-73
2023/02/26 02:37:01;;;;;;;206.13;190.70;;;;;;;-2.69;79.40;101984.56;4928142;29;20035;-73
2023/02/26 02:39:31;;;;;;;194.63;179.45;;;;;;;-2.95;80.24;101981.88;4912777;29;20054;-74
2023/02/26 02:42:15;;;;;;;191.45;176.27;;;;;;;-3.10;80.37;101990.25;4932817;29;20124;-72
2023/02/26 02:44:47;;;;;;;192.73;177.80;;;;;;;-3.11;81.12;101993.88;4928614;29;20036;-73
2023/02/26 02:47:15;;;;;;;197.13;181.60;;;;;;;-2.90;79.67;101997.97;4929579;29;20036;-73
2023/02/26 02:50:06;;;;;;;202.43;187.45;;;;;;;-3.05;80.02;101998.50;4916153;29;20046;-72
2023/02/26 02:52:42;;;;;;;200.10;184.25;;;;;;;-3.26;81.01;102007.59;4927659;29;20063;-73
2023/02/26 02:55:21;;;;;;;207.20;191.82;;;;;;;-3.34;81.55;102009.16;4930228;29;20417;-73
2023/02/26 02:57:52;;;;;;;202.02;187.13;;;;;;;-3.43;81.92;102017.09;4927636;29;20035;-71
2023/02/26 03:00:22;;;;;;;195.32;179.98;;;;;;;-3.49;82.24;102015.06;4913021;29;20043;-72
2023/02/26 03:03:01;;;;;;;200.35;184.98;;;;;;;-3.62;82.80;102020.63;4929718;29;20039;-73
2023/02/26 03:05:27;;;;;;;207.57;192.10;;;;;;;-3.27;82.14;102021.69;4898683;29;20052;-73
2023/02/26 03:07:57;;;;;;;198.68;183.07;;;;;;;-3.26;81.49;102021.53;4928690;29;20043;-73
2023/02/26 03:10:23;;;;;;;195.43;179.95;;;;;;;-3.46;81.82;102031.28;4928635;29;20047;-73
2023/02/26 03:12:49;;;;;;;195.05;179.45;;;;;;;-3.52;82.07;102029.28;4913427;29;20039;-74
2023/02/26 03:15:58;;;;;;;188.45;173.68;;;;;;;-3.58;82.09;102035.09;4929790;29;20556;-72
2023/02/26 03:18:49;;;;;;;205.40;190.10;;;;;;;-3.64;82.30;102039.13;4924528;29;20040;-73
2023/02/26 03:21:52;;;;;;;199.23;183.27;;;;;;;-3.55;81.92;102039.22;4926773;29;20047;-73
2023/02/26 03:24:48;;;;;;;208.27;192.85;;;;;;;-3.70;82.37;102050.16;4913628;29;20553;-73
2023/02/26 03:27:28;;;;;;;205.38;190.18;;;;;;;-3.66;82.17;102048.91;4926623;29;20543;-74
2023/02/26 03:30:01;;;;;;;209.35;193.73;;;;;;;-3.44;81.80;102045.09;4929720;29;20039;-74
2023/02/26 03:32:41;;;;;;;207.98;192.48;;;;;;;-3.66;82.09;102043.69;4913054;29;20074;-72
2023/02/26 03:35:30;;;;;;;195.77;180.00;;;;;;;-3.70;82.33;102049.34;4927318;29;20050;-72
2023/02/26 03:38:02;;;;;;;206.23;190.93;;;;;;;-3.66;82.33;102051.53;4927377;29;20039;-73
2023/02/26 03:40:36;;;;;;;198.50;182.48;;;;;;;-3.73;82.64;102053.03;4926859;29;20224;-71
2023/02/26 03:43:23;;;;;;;197.95;181.73;;;;;;;-3.61;82.09;102065.00;4927969;29;20031;-73
2023/02/26 03:45:55;;;;;;;205.43;190.38;;;;;;;-3.53;82.46;102066.88;4916854;29;20382;-71
2023/02/26 03:48:26;;;;;;;196.93;181.45;;;;;;;-3.41;82.20;102064.91;4928728;29;20501;-70
2023/02/26 03:50:56;;;;;;;204.57;189.48;;;;;;;-3.50;82.21;102069.22;4928827;29;20052;-73
2023/02/26 03:53:50;;;;;;;203.55;188.80;;;;;;;-3.50;82.12;102081.50;4941365;29;20055;-73
2023/02/26 03:56:29;;;;;;;210.20;194.80;;;;;;;-3.57;82.04;102083.88;4927000;29;20055;-73
2023/02/26 03:59:24;;;;;;;206.27;191.18;;;;;;;-3.69;82.45;102091.06;4927344;29;20035;-73
2023/02/26 04:02:14;;;;;;;197.25;181.70;;;;;;;-3.43;81.94;102099.13;4943042;28;20039;-73
2023/02/26 04:04:55;;;;;;;208.93;193.43;;;;;;;-3.52;81.63;102088.66;4910918;29;20146;-73
2023/02/26 04:07:21;;;;;;;195.85;180.25;;;;;;;-3.53;81.70;102097.50;4926587;29;20065;-70
2023/02/26 04:09:49;;;;;;;207.23;191.90;;;;;;;-3.46;81.42;102095.94;4927076;29;20031;-72
2023/02/26 04:12:21;;;;;;;205.32;190.50;;;;;;;-3.45;81.14;102102.84;4927090;29;20394;-73
2023/02/26 04:14:48;;;;;;;196.30;180.60;;;;;;;-3.43;80.91;102100.91;4913949;29;20122;-73
2023/02/26 04:17:14;;;;;;;206.52;191.43;;;;;;;-3.69;81.75;102106.78;4925744;29;20048;-73
2023/02/26 04:19:40;;;;;;;193.85;178.57;;;;;;;-3.70;81.54;102113.00;4914867;29;20103;-72
2023/02/26 04:22:05;;;;;;;202.15;187.23;;;;;;;-3.70;81.51;102113.00;4926018;29;20467;-74
2023/02/26 04:24:31;;;;;;;193.88;178.88;;;;;;;-3.50;80.98;102110.31;4942760;28;20035;-73
2023/02/26 04:26:59;;;;;;;205.50;190.45;;;;;;;-3.75;81.05;102125.69;4925251;29;20516;-74
2023/02/26 04:29:25;;;;;;;210.30;194.70;;;;;;;-3.96;82.23;102119.81;4926901;29;20044;-74
2023/02/26 04:31:51;;;;;;;205.07;190.15;;;;;;;-3.98;82.13;102114.72;4925044;29;20059;-72
2023/02/26 04:34:16;;;;;;;208.18;192.77;;;;;;;-3.91;82.36;102125.44;4926627;29;20122;-71
2023/02/26 04:36:42;;;;;;;199.00;182.63;;;;;;;-4.10;82.45;102130.72;4924337;29;20055;-73
2023/02/26 04:39:09;;;;;;;196.77;181.02;;;;;;;-3.89;81.90;102133.97;4928279;29;20038;-73
2023/02/26 04:41:35;;;;;;;198.68;182.88;;;;;;;-3.86;81.54;102128.47;4929195;29;20045;-72
2023/02/26 04:44:01;;;;;;;204.77;189.75;;;;;;;-3.83;81.53;102133.41;4946486;28;20111;-73
2023/02/26 04:46:30;;;;;;;205.25;190.20;;;;;;;-3.78;80.91;102143.47;4945546;28;20050;-70
2023/02/26 04:48:56;;;;;;;203.15;188.05;;;;;;;-3.89;81.27;102145.28;4928627;29;20115;-73
2023/02/26 04:51:22;;;;;;;194.65;179.32;;;;;;;-3.95;81.63;102150.25;4929392;28;20051;-72
2023/02/26 04:53:49;;;;;;;196.40;180.40;;;;;;;-3.83;81.31;102149.13;4929373;29;20047;-71
2023/02/26 04:56:15;;;;;;;208.98;193.75;;;;;;;-3.70;80.70;102152.28;4930220;29;20044;-72
2023/02/26 04:58:41;;;;;;;197.73;181.93;;;;;;;-3.52;79.45;102152.38;4942804;28;20405;-73
2023/02/26 05:01:13;;;;;;;205.48;190.15;;;;;;;-3.58;79.35;102164.22;4926531;29;20047;-72
2023/02/26 05:03:38;;;;;;;197.88;181.98;;;;;;;-3.66;79.45;102166.75;4925902;29;20043;-72
2023/02/26 05:06:04;;;;;;;205.73;190.68;;;;;;;-3.54;79.43;102174.41;4927947;29;20043;-72
2023/02/26 05:08:33;;;;;;;196.63;181.23;;;;;;;-3.80;79.66;102172.38;4911839;29;20067;-74
2023/02/26 05:10:58;;;;;;;196.07;180.18;;;;;;;-3.61;78.19;102168.91;4927815;29;20036;-73
2023/02/26 05:13:25;;;;;;;194.43;179.23;;;;;;;-3.53;78.76;102173.44;4928671;29;20044;-70
2023/02/26 05:15:53;;;;;;;204.07;189.13;;;;;;;-3.79;79.18;102170.59;4929952;29;20401;-72
2023/02/26 05:18:19;;;;;;;197.55;182.00;;;;;;;-3.78;79.03;102183.56;4942092;29;20097;-74
2023/02/26 05:20:51;;;;;;;207.80;192.43;;;;;;;-3.82;79.13;102190.03;4910322;29;20048;-72
2023/02/26 05:23:17;;;;;;;205.57;190.65;;;;;;;-3.89;79.82;102202.03;4940687;29;20047;-73
2023/02/26 05:25:42;;;;;;;206.95;191.85;;;;;;;-3.95;79.63;102203.41;4913324;29;20039;-73
2023/02/26 05:28:08;;;;;;;206.30;191.13;;;;;;;-4.19;80.26;102195.16;4925169;29;20028;-72
2023/02/26 05:30:34;;;;;;;208.88;193.45;;;;;;;-4.28;80.76;102209.03;4928287;29;20559;-73
2023/02/26 05:33:00;;;;;;;202.43;187.65;;;;;;;-3.95;79.81;102202.59;4940745;28;20079;-72
2023/02/26 05:35:26;;;;;;;196.57;180.93;;;;;;;-3.92;80.21;102197.09;4924808;29;20044;-72
2023/02/26 05:37:51;;;;;;;198.52;183.85;;;;;;;-3.94;79.62;102204.22;4942507;28;20046;-73
2023/02/26 05:40:17;;;;;;;183.00;170.30;;;;;;;-3.91;79.27;102211.81;4926055;29;20478;-73
2023/02/26 05:42:43;;;;;;;192.73;177.70;;;;;;;-3.86;78.99;102213.06;4924740;29;20048;-70
2023/02/26 05:45:09;;;;;;;204.63;190.07;;;;;;;-3.46;77.35;102203.34;4914399;29;20071;-73
2023/02/26 05:47:36;;;;;;;212.38;196.57;;;;;;;-3.25;76.01;102214.47;4924459;29;20057;-72
2023/02/26 05:50:04;;;;;;;215.93;199.98;;;;;;;-3.38;76.36;102216.56;4924705;29;20040;-71
2023/02/26 05:52:29;;;;;;;196.65;181.10;;;;;;;-3.41;76.71;102224.69;4939858;28;20048;-72
2023/02/26 05:54:55;;;;;;;207.32;192.25;;;;;;;-3.35;77.29;102229.38;4924445;29;20701;-72
2023/02/26 05:57:22;;;;;;;199.15;182.95;;;;;;;-3.42;77.47;102236.16;4909229;29;20051;-72
2023/02/26 05:59:47;;;;;;;198.02;182.07;;;;;;;-3.42;77.65;102241.38;4924827;29;20043;-72
2023/02/26 06:02:13;;;;;;;198.38;182.48;;;;;;;-3.40;77.71;102247.28;4925952;29;20047;-73
2023/02/26 06:04:38;;;;;;;208.32;192.77;;;;;;;-3.35;77.77;102252.94;4944799;29;20048;-74
2023/02/26 06:07:04;;;;;;;206.93;191.80;;;;;;;-3.37;77.68;102249.66;4943724;28;20044;-71
2023/02/26 06:09:30;;;;;;;197.85;182.20;;;;;;;-3.39;77.82;102259.41;4928388;29;20039;-71
2023/02/26 06:11:55;;;;;;;195.65;180.25;;;;;;;-3.62;78.53;102262.34;4929457;29;20039;-72
2023/02/26 06:14:21;;;;;;;196.60;180.82;;;;;;;-3.48;78.08;102257.66;4931903;29;20063;-72
2023/02/26 06:16:47;;;;;;;207.00;191.50;;;;;;;-3.31;78.03;102260.41;4931001;29;20071;-72
2023/02/26 06:19:13;;;;;;;208.80;193.65;;;;;;;-3.32;78.18;102268.38;4931224;29;20048;-72
2023/02/26 06:21:38;;;;;;;206.15;190.90;;;;;;;-3.43;78.63;102271.16;4912273;29;20447;-71
2023/02/26 06:24:04;;;;;;;195.40;180.00;;;;;;;-3.51;79.06;102279.72;4932698;29;20051;-71
2023/02/26 06:26:29;;;;;;;207.30;192.05;;;;;;;-3.52;79.47;102277.22;4931929;29;20043;-72
2023/02/26 06:28:56;;;;;;;208.32;193.13;;;;;;;-3.33;78.47;102282.44;4930818;29;20048;-71
2023/02/26 06:31:21;;;;;;;207.73;192.57;;;;;;;-3.31;78.19;102285.78;4930777;29;20118;-72
2023/02/26 06:33:47;;;;;;;207.55;192.20;;;;;;;-3.32;78.12;102289.31;4914099;29;20130;-71
2023/02/26 06:36:13;;;;;;;196.85;181.07;;;;;;;-3.37;78.56;102292.38;4932139;29;20131;-71
2023/02/26 06:38:38;;;;;;;208.23;192.73;;;;;;;-3.39;78.36;102301.34;4930663;29;20150;-71
2023/02/26 06:41:04;;;;;;;195.55;180.18;;;;;;;-3.20;77.75;102303.94;4929195;29;20036;-71
2023/02/26 06:43:30;;;;;;;208.05;192.45;;;;;;;-3.20;77.95;102300.50;4929255;29;20062;-72
2023/02/26 06:45:59;;;;;;;206.43;191.07;;;;;;;-3.19;77.90;102310.81;4929881;29;20043;-71
2023/02/26 06:48:26;;;;;;;205.18;190.18;;;;;;;-3.20;77.60;102309.16;4948725;28;20055;-71
2023/02/26 06:50:51;;;;;;;197.02;180.93;;;;;;;-3.26;78.24;102320.22;4944194;28;20035;-72
2023/02/26 06:53:17;;;;;;;208.77;193.02;;;;;;;-2.93;76.66;102311.03;4929517;29;20039;-71
2023/02/26 06:55:44;;;;;;;207.40;192.27;;;;;;;-2.76;76.46;102318.19;4928523;29;20053;-72
2023/02/26 06:58:11;;;;;;;210.25;194.57;;;;;;;-2.75;76.17;102321.63;4945631;28;20418;-72
2023/02/26 07:00:37;;;;;;;199.38;183.52;;;;;;;-2.72;76.20;102329.19;4914041;29;20096;-72
2023/02/26 07:03:04;;;;;;;197.10;181.50;;;;;;;-2.57;75.42;102333.03;4930662;29;20040;-72
2023/02/26 07:05:29;;;;;;;198.18;182.43;;;;;;;-2.28;73.50;102340.75;4911653;29;20127;-71
2023/02/26 07:07:55;;;;;;;207.30;192.32;;;;;;;-2.16;73.15;102330.06;4931430;29;20130;-72
2023/02/26 07:10:21;;;;;;;196.85;180.93;;;;;;;-2.14;73.63;102343.84;4929277;29;20800;-72
2023/02/26 07:12:47;;;;;;;196.10;180.57;;;;;;;-2.08;73.26;102341.47;4944917;28;20044;-71
2023/02/26 07:15:13;;;;;;;205.52;190.40;;;;;;;-1.90;73.20;102340.66;4947836;28;20212;-71
2023/02/26 07:17:39;;;;;;;197.35;181.63;;;;;;;-1.74;73.91;102351.34;4915733;29;20099;-72
2023/02/26 07:20:08;;;;;;;198.90;183.07;;;;;;;-1.61;72.90;102345.72;4913283;29;20499;-72
2023/02/26 07:22:36;;;;;;;204.43;189.32;;;;;;;-1.52;72.63;102361.41;4931325;29;20035;-71
2023/02/26 07:25:04;;;;;;;194.45;179.05;;;;;;;-1.10;72.30;102366.00;4930441;29;20036;-72
2023/02/26 07:27:31;;;;;;;205.02;189.98;;;;;;;-0.85;69.08;102359.13;4910889;29;20047;-72
2023/02/26 07:29:56;;;;;;;191.93;176.95;;;;;;;-0.77;69.47;102367.06;4945973;28;20490;-73
2023/02/26 07:32:22;;;;;;;199.38;184.73;;;;;;;-0.68;70.55;102365.31;4929434;29;20393;-72
2023/02/26 07:34:47;;;;;;;194.25;178.98;;;;;;;-0.75;69.38;102375.63;4926468;29;20047;-71
2023/02/26 07:37:13;;;;;;;201.20;186.40;;;;;;;-0.76;70.22;102381.03;4913559;29;20054;-70
2023/02/26 07:39:39;;;;;;;194.43;179.40;;;;;;;-0.87;70.63;102375.06;4929166;29;20079;-71
2023/02/26 07:42:04;;;;;;;203.23;188.32;;;;;;;-0.80;70.10;102384.97;4944565;28;20043;-72
2023/02/26 07:44:32;;;;;;;194.43;179.57;;;;;;;-0.84;70.25;102382.66;4929625;29;20035;-71
2023/02/26 07:46:57;;;;;;;195.27;180.73;;;;;;;-0.78;70.84;102385.66;4932924;29;20049;-71
2023/02/26 07:49:24;;;;;;;196.77;181.32;;;;;;;-0.64;70.34;102379.81;4928738;29;20043;-74
2023/02/26 07:51:50;;;;;;;198.15;183.02;;;;;;;-0.44;70.54;102383.03;4910915;29;20696;-70
2023/02/26 07:54:15;;;;;;;203.93;188.75;;;;;;;-0.31;69.33;102375.53;4932924;29;20134;-71
2023/02/26 07:56:44;;;;;;;200.23;185.18;;;;;;;-0.44;70.61;102380.41;4947378;28;20046;-71
2023/02/26 07:59:10;;;;;;;198.15;183.02;;;;;;;-0.44;70.08;102394.41;4933781;29;20581;-70
2023/02/26 08:01:36;;;;;;;197.02;182.18;;;;;;;-0.34;70.18;102389.88;4930240;29;20042;-72
2023/02/26 08:04:03;;;;;;;194.63;179.80;;;;;;;-0.16;69.21;102397.66;4930857;29;20039;-73
2023/02/26 08:06:29;;;;;;;190.60;175.98;;;;;;;-0.21;69.30;102401.75;4924306;29;20039;-72
2023/02/26 08:08:55;;;;;;;192.40;177.50;;;;;;;-0.20;68.75;102401.59;4943903;28;20036;-72
2023/02/26 08:11:21;;;;;;;194.15;179.48;;;;;;;-0.42;69.10;102408.22;4928258;29;20053;-72
2023/02/26 08:13:47;;;;;;;190.60;176.15;;;;;;;-0.55;70.27;102405.19;4930575;29;20041;-72
2023/02/26 08:16:13;;;;;;;189.10;175.02;;;;;;;-0.34;69.80;102416.19;4947034;28;20047;-72
2023/02/26 08:18:39;;;;;;;191.27;176.40;;;;;;;-0.25;69.62;102413.59;4913244;29;20038;-71
2023/02/26 08:21:04;;;;;;;194.40;179.18;;;;;;;-0.22;69.28;102414.09;4946494;28;20485;-71
2023/02/26 08:23:31;;;;;;;194.02;179.40;;;;;;;-0.11;69.67;102405.91;4932494;29;20096;-70
2023/02/26 08:26:01;;;;;;;196.35;181.48;;;;;;;-0.01;67.93;102411.88;4929532;29;20046;-72
2023/02/26 08:28:27;;;;;;;195.10;180.30;;;;;;;0.12;67.72;102416.69;4926990;29;20050;-71
2023/02/26 08:30:54;;;;;;;194.93;180.38;;;;;;;0.02;68.95;102437.09;4927779;29;20039;-70
2023/02/26 08:33:20;;;;;;;194.18;179.48;;;;;;;0.07;67.98;102429.53;4928411;29;20143;-72
2023/02/26 08:35:46;;;;;;;191.10;176.70;;;;;;;0.04;68.65;102437.75;4927454;29;20959;-72
2023/02/26 08:38:11;;;;;;;197.48;182.48;;;;;;;0.13;68.76;102433.31;4925194;29;20035;-72
2023/02/26 08:40:37;;;;;;;192.88;178.30;;;;;;;0.21;67.13;102436.00;4929094;29;20035;-72
2023/02/26 08:43:03;;;;;;;192.50;178.18;;;;;;;0.28;67.26;102446.72;4946121;28;20561;-72
2023/02/26 08:45:29;;;;;;;191.15;176.77;;;;;;;0.33;67.08;102457.59;4929163;29;20393;-71
2023/02/26 08:47:54;;;;;;;192.07;177.07;;;;;;;0.24;68.25;102457.56;4933967;29;20098;-72
2023/02/26 08:50:20;;;;;;;191.45;176.77;;;;;;;0.46;66.88;102471.16;4926274;29;20036;-72
2023/02/26 08:52:49;;;;;;;193.27;178.80;;;;;;;0.46;66.39;102464.06;4925557;29;20043;-74
2023/02/26 08:55:14;;;;;;;193.48;178.95;;;;;;;0.61;66.33;102468.72;4930935;29;20047;-70
2023/02/26 08:57:40;;;;;;;193.05;178.40;;;;;;;0.58;65.90;102475.13;4928128;29;20887;-71
2023/02/26 09:00:09;;;;;;;193.38;178.77;;;;;;;0.56;65.98;102486.84;4927865;29;20173;-72
2023/02/26 09:02:36;;;;;;;192.73;177.70;;;;;;;0.73;65.40;102493.78;4910923;29;20712;-73
2023/02/26 09:05:02;;;;;;;193.27;178.88;;;;;;;0.66;65.79;102488.34;4941934;28;20042;-74
2023/02/26 09:07:28;;;;;;;191.07;176.50;;;;;;;0.70;65.24;102489.69;4909212;29;20036;-73
2023/02/26 09:09:53;;;;;;;189.85;175.60;;;;;;;0.79;65.69;102495.78;4943056;29;20413;-73
2023/02/26 09:12:19;;;;;;;193.32;178.82;;;;;;;0.94;64.02;102495.97;4928261;29;20063;-73
2023/02/26 09:14:45;;;;;;;194.32;179.50;;;;;;;0.87;64.08;102500.25;4925763;29;20045;-70
2023/02/26 09:17:10;;;;;;;191.23;176.65;;;;;;;0.90;64.94;102502.56;4927074;29;20520;-72
2023/02/26 09:19:39;;;;;;;197.07;181.93;;;;;;;0.86;64.72;102503.88;4933491;28;20032;-72
2023/02/26 09:22:05;;;;;;;190.27;176.05;;;;;;;1.08;63.21;102508.50;4946091;28;20049;-73
2023/02/26 09:24:30;;;;;;;191.98;177.18;;;;;;;1.18;61.87;102513.66;4928578;29;20043;-73
2023/02/26 09:26:56;;;;;;;191.30;176.93;;;;;;;1.15;61.79;102520.06;4942799;28;20070;-72
2023/02/26 09:29:22;;;;;;;195.55;180.57;;;;;;;1.48;61.86;102515.63;4925147;29;20039;-71
2023/02/26 09:31:48;;;;;;;193.95;179.57;;;;;;;1.67;59.11;102519.72;4924819;29;20039;-73
2023/02/26 09:34:13;;;;;;;191.77;177.38;;;;;;;1.39;59.06;102531.63;4927175;29;20150;-71
2023/02/26 09:36:40;;;;;;;191.10;176.75;;;;;;;1.36;56.77;102523.06;4928435;29;20039;-72
2023/02/26 09:39:07;;;;;;;194.00;179.48;;;;;;;1.50;57.67;102524.22;4948775;28;20036;-72
2023/02/26 09:41:44;;;;;;;195.70;180.80;;;;;;;1.67;57.15;102525.00;4919651;29;20035;-72
2023/02/26 09:44:20;;;;;;;190.27;176.18;;;;;;;1.79;54.82;102528.16;4935109;29;20044;-72
2023/02/26 09:46:58;;;;;;;191.25;176.75;;;;;;;1.70;55.03;102531.81;4913543;29;20536;-72
2023/02/26 09:49:43;;;;;;;186.93;173.00;;;;;;;1.89;53.95;102534.88;4933376;29;20126;-72
2023/02/26 09:52:23;;;;;;;190.95;176.45;;;;;;;1.83;54.16;102535.56;4946491;28;20047;-71
2023/02/26 09:54:52;;;;;;;193.15;178.55;;;;;;;1.99;53.55;102539.16;4930559;29;20059;-70
2023/02/26 09:57:31;;;;;;;192.82;178.32;;;;;;;1.98;53.94;102534.88;4948750;28;20043;-71
2023/02/26 09:59:59;;;;;;;192.57;178.25;;;;;;;2.08;53.53;102541.59;4946360;28;20032;-71
2023/02/26 10:02:54;;;;;;;189.52;175.43;;;;;;;1.97;53.57;102551.75;4938995;29;20114;-71
2023/02/26 10:05:31;;;;;;;185.77;171.93;;;;;;;2.03;54.48;102543.09;4923910;29;20129;-70
2023/02/26 10:08:06;;;;;;;192.50;178.13;;;;;;;2.02;52.71;102552.03;4930669;29;20118;-70
2023/02/26 10:10:53;;;;;;;191.55;177.52;;;;;;;2.27;52.09;102543.06;4931806;29;20609;-71
2023/02/26 10:13:42;;;;;;;189.32;175.13;;;;;;;2.37;51.45;102540.19;4933442;29;20113;-71
2023/02/26 10:16:13;;;;;;;188.88;174.73;;;;;;;2.32;52.18;102546.00;4931932;29;20840;-72
2023/02/26 10:18:55;;;;;;;189.35;175.38;;;;;;;2.32;52.33;102539.91;4933379;29;20077;-71
2023/02/26 10:21:28;;;;;;;186.73;172.77;;;;;;;2.56;53.11;102552.19;4932581;29;20066;-71
2023/02/26 10:23:57;;;;;;;188.30;174.13;;;;;;;3.13;52.10;102543.94;4931782;29;20424;-71
2023/02/26 10:26:31;;;;;;;193.43;179.23;;;;;;;3.20;51.76;102543.06;4925524;29;20067;-70
2023/02/26 10:29:16;;;;;;;188.60;174.52;;;;;;;3.51;50.71;102552.75;4928413;29;20032;-71
2023/02/26 10:31:58;;;;;;;190.57;176.07;;;;;;;3.63;51.06;102545.19;4927477;29;20039;-71
2023/02/26 10:34:34;;;;;;;195.65;181.38;;;;;;;3.93;50.16;102562.81;4946125;29;20044;-72
2023/02/26 10:37:15;;;;;;;209.60;194.25;;;;;;;3.21;49.31;102565.06;4929352;29;20526;-72
2023/02/26 10:39:47;;;;;;;189.40;175.18;;;;;;;3.18;51.55;102558.28;4928942;29;20035;-72
2023/02/26 10:42:21;;;;;;;188.93;174.35;;;;;;;3.06;52.05;102570.28;4929360;29;20489;-72
2023/02/26 10:44:55;;;;;;;185.25;171.27;;;;;;;3.44;50.71;102567.69;4928683;29;20458;-73
2023/02/26 10:47:40;;;;;;;186.13;171.93;;;;;;;3.55;50.94;102569.94;4927647;29;20059;-73
2023/02/26 10:50:12;;;;;;;190.02;175.32;;;;;;;3.34;50.28;102573.25;4925919;29;20058;-71
2023/02/26 10:52:38;;;;;;;198.98;184.88;;;;;;;3.73;49.82;102573.09;4926955;29;20035;-71
2023/02/26 10:55:38;;;;;;;198.63;184.20;;;;;;;3.94;49.70;102577.72;4909369;29;20497;-71
2023/02/26 10:58:10;;;;;;;196.00;182.02;;;;;;;3.88;49.28;102573.13;4908417;29;20051;-69
2023/02/26 11:00:37;;;;;;;112.93;102.72;;;;;;;4.30;49.55;102571.69;4942032;29;20040;-70
2023/02/26 11:03:06;;;;;;;200.27;185.93;;;;;;;4.58;49.72;102577.16;4928781;29;20039;-71
2023/02/26 11:05:33;;;;;;;187.30;172.40;;;;;;;4.34;49.48;102578.28;4942928;28;20115;-71
2023/02/26 11:08:09;;;;;;;204.23;189.63;;;;;;;4.44;48.96;102573.50;4925588;29;20055;-71
2023/02/26 11:10:40;;;;;;;196.70;181.88;;;;;;;4.14;48.59;102591.25;4922666;29;20054;-73
2023/02/26 11:13:06;;;;;;;188.60;173.70;;;;;;;3.68;50.07;102585.22;4941918;28;20143;-73